Time;durP1;ratioP1;P1;durP2;ratioP2;P2;SDS_P1;SDS_P2;PMS_P1;PMS_P2;Temp;Humidity;BMP_temperature;BMP_pressure;BME280_temperature;BME280_humidity;BME280_pressure;Samples;Min_cycle;Max_cycle;Signal;HPM_P1;HPM_P2
2021/09/16 00:01:22;;;;;;;12.48;8.35;;;;;;;15.14;100.00;95017.38;10530035;28;20060;-72
2021/09/16 00:06:22;;;;;;;12.07;7.88;;;;;;;14.95;100.00;95022.81;10529826;28;20038;-71
2021/09/16 00:11:23;;;;;;;9.90;7.20;;;;;;;14.84;100.00;95009.44;10529101;28;20459;-72
2021/09/16 00:16:23;;;;;;;10.70;7.28;;;;;;;14.75;100.00;95013.09;10529029;28;20334;-72
2021/09/16 00:21:27;;;;;;;12.20;7.72;;;;;;;14.59;100.00;95015.97;10529052;28;20051;-71
2021/09/16 00:26:27;;;;;;;12.07;7.40;;;;;;;14.60;100.00;95020.28;10528316;28;20064;-72
2021/09/16 00:31:28;;;;;;;13.00;8.02;;;;;;;14.70;100.00;95020.19;10527290;28;20024;-71
2021/09/16 00:36:28;;;;;;;9.80;8.15;;;;;;;14.69;100.00;95023.19;10528784;28;20435;-72
2021/09/16 00:41:29;;;;;;;12.70;8.77;;;;;;;14.59;100.00;95034.91;10528610;28;20116;-71
2021/09/16 00:46:30;;;;;;;11.88;7.38;;;;;;;14.59;100.00;95018.69;10528891;28;20028;-72
2021/09/16 00:51:30;;;;;;;13.47;7.50;;;;;;;14.54;100.00;95024.19;10528684;28;20034;-72
2021/09/16 00:56:32;;;;;;;12.77;8.02;;;;;;;14.60;100.00;95022.22;10529035;28;20046;-71
2021/09/16 01:01:33;;;;;;;12.07;8.75;;;;;;;14.50;100.00;95015.03;10528110;28;20051;-72
2021/09/16 01:06:33;;;;;;;12.23;8.40;;;;;;;14.39;100.00;95013.56;10528070;28;20036;-72
2021/09/16 01:11:34;;;;;;;10.15;6.93;;;;;;;14.05;100.00;95018.03;10528694;28;20039;-72
2021/09/16 01:16:34;;;;;;;13.23;8.90;;;;;;;14.11;100.00;95010.66;10543908;28;20502;-72
2021/09/16 01:21:34;;;;;;;16.13;8.80;;;;;;;13.96;100.00;95017.81;10527766;28;20031;-72
2021/09/16 01:26:35;;;;;;;22.03;9.13;;;;;;;13.86;100.00;95017.94;10536323;28;20036;-72
2021/09/16 01:31:41;;;;;;;15.75;8.82;;;;;;;13.97;100.00;95014.03;10536622;28;20035;-71
2021/09/16 01:36:44;;;;;;;17.42;9.32;;;;;;;13.99;100.00;95011.84;10536282;28;20073;-72
2021/09/16 01:41:45;;;;;;;11.07;7.72;;;;;;;13.90;100.00;95005.47;10538148;28;20039;-72
2021/09/16 01:46:46;;;;;;;12.30;8.63;;;;;;;13.96;100.00;95012.44;10535601;28;20028;-72
2021/09/16 01:51:46;;;;;;;11.70;7.07;;;;;;;13.93;100.00;95007.59;10536051;28;20059;-72
2021/09/16 01:56:47;;;;;;;12.03;7.73;;;;;;;13.98;100.00;95010.25;10534313;28;20028;-72
2021/09/16 02:01:47;;;;;;;10.40;7.57;;;;;;;14.02;100.00;95016.69;10533376;28;20060;-72
2021/09/16 02:06:47;;;;;;;10.27;6.90;;;;;;;14.09;100.00;95010.13;10517310;28;20028;-72
2021/09/16 02:11:48;;;;;;;9.05;7.07;;;;;;;14.08;100.00;95008.50;10535040;28;20270;-72
2021/09/16 02:16:48;;;;;;;11.40;6.07;;;;;;;14.01;100.00;95006.97;10534296;28;20024;-72
2021/09/16 02:21:49;;;;;;;10.03;6.90;;;;;;;13.86;100.00;95007.16;10534472;28;20024;-72
2021/09/16 02:26:49;;;;;;;9.45;5.93;;;;;;;13.78;100.00;94997.75;10534425;28;20035;-72
2021/09/16 02:31:49;;;;;;;10.00;7.03;;;;;;;13.63;100.00;95008.72;10534232;28;20479;-72
2021/09/16 02:36:50;;;;;;;11.88;6.70;;;;;;;13.66;100.00;94995.47;10532613;28;20464;-72
2021/09/16 02:41:50;;;;;;;12.60;7.50;;;;;;;13.57;100.00;95012.56;10534003;28;20532;-71
2021/09/16 02:46:50;;;;;;;11.40;6.60;;;;;;;13.65;100.00;95020.84;10533755;28;20027;-71
2021/09/16 02:51:51;;;;;;;14.93;7.27;;;;;;;13.62;100.00;95016.03;10532301;28;20032;-72
2021/09/16 02:56:51;;;;;;;10.20;7.53;;;;;;;13.44;100.00;95012.16;10533201;28;20028;-72
2021/09/16 03:01:52;;;;;;;12.70;7.15;;;;;;;13.24;100.00;95021.22;10532408;28;20043;-71
2021/09/16 03:06:52;;;;;;;13.50;7.30;;;;;;;13.16;100.00;95019.91;10532385;28;20040;-71
2021/09/16 03:11:52;;;;;;;10.53;7.70;;;;;;;13.06;100.00;95017.31;10532632;28;20094;-71
2021/09/16 03:16:53;;;;;;;16.47;9.23;;;;;;;13.00;100.00;95021.09;10532676;28;20035;-71
2021/09/16 03:21:53;;;;;;;13.65;8.65;;;;;;;13.02;100.00;95024.34;10532037;28;20047;-72
2021/09/16 03:26:54;;;;;;;16.00;7.13;;;;;;;12.88;100.00;95018.78;10530889;28;20036;-71
2021/09/16 03:31:54;;;;;;;15.63;8.82;;;;;;;12.85;100.00;95016.66;10531862;28;20050;-71
2021/09/16 03:36:54;;;;;;;13.43;7.80;;;;;;;12.65;100.00;95012.97;10513518;28;20016;-71
2021/09/16 03:41:55;;;;;;;11.70;8.63;;;;;;;12.44;100.00;95016.88;10531281;28;20056;-71
2021/09/16 03:46:55;;;;;;;13.38;8.75;;;;;;;12.31;100.00;95021.00;10531268;28;20036;-71
2021/09/16 03:51:56;;;;;;;17.77;9.30;;;;;;;12.32;100.00;95030.69;10531015;28;20031;-71
2021/09/16 03:56:56;;;;;;;13.90;8.57;;;;;;;12.31;100.00;95023.69;10530395;28;20031;-71
2021/09/16 04:01:57;;;;;;;12.27;8.55;;;;;;;12.43;100.00;95026.03;10530093;28;20302;-71
2021/09/16 04:06:57;;;;;;;14.65;8.73;;;;;;;12.54;100.00;95029.50;10530245;28;20045;-71
2021/09/16 04:11:58;;;;;;;9.57;7.93;;;;;;;12.54;100.00;95022.22;10546087;28;20031;-72
2021/09/16 04:16:58;;;;;;;15.07;8.65;;;;;;;12.42;100.00;95027.94;10552161;28;20107;-71
2021/09/16 04:21:59;;;;;;;13.18;8.77;;;;;;;12.31;100.00;95027.19;10569748;28;20072;-71
2021/09/16 04:26:59;;;;;;;12.90;9.40;;;;;;;12.37;100.00;95040.66;10570073;28;20044;-71
2021/09/16 04:31:59;;;;;;;16.38;8.60;;;;;;;12.54;100.00;95035.69;10569917;28;20427;-71
2021/09/16 04:37:00;;;;;;;12.97;8.73;;;;;;;12.55;100.00;95039.22;10570653;28;20069;-71
2021/09/16 04:42:01;;;;;;;13.20;8.87;;;;;;;12.39;100.00;95041.16;10570984;28;20027;-71
2021/09/16 04:47:01;;;;;;;12.93;9.23;;;;;;;12.37;100.00;95056.81;10569979;28;20294;-71
2021/09/16 04:52:02;;;;;;;24.23;9.13;;;;;;;12.38;100.00;95070.00;10569618;28;20027;-72
2021/09/16 04:57:02;;;;;;;20.48;10.02;;;;;;;12.50;100.00;95066.19;10568931;28;20462;-71
2021/09/16 05:02:03;;;;;;;17.10;9.55;;;;;;;12.66;100.00;95054.25;10567253;28;20055;-71
2021/09/16 05:07:04;;;;;;;21.33;10.23;;;;;;;12.93;100.00;95061.09;10571608;28;20023;-72
2021/09/16 05:12:04;;;;;;;14.30;9.30;;;;;;;13.21;100.00;95066.84;10561239;28;20114;-71
2021/09/16 05:17:05;;;;;;;16.98;9.38;;;;;;;13.39;100.00;95071.56;10556867;28;20107;-73
2021/09/16 05:22:05;;;;;;;12.80;8.80;;;;;;;13.71;100.00;95072.13;10543150;28;20417;-73
2021/09/16 05:27:05;;;;;;;12.90;7.87;;;;;;;13.83;100.00;95067.16;10569005;28;20296;-74
2021/09/16 05:32:06;;;;;;;15.70;10.03;;;;;;;14.00;100.00;95070.22;10533756;28;20274;-75
2021/09/16 05:37:06;;;;;;;16.15;9.82;;;;;;;14.13;100.00;95067.91;10526806;28;20027;-75
2021/09/16 05:42:07;;;;;;;15.37;10.03;;;;;;;14.61;100.00;95080.59;10527446;28;20028;-75
2021/09/16 05:47:07;;;;;;;24.40;10.23;;;;;;;15.06;100.00;95069.47;10527698;28;20028;-74
2021/09/16 05:52:08;;;;;;;19.67;11.07;;;;;;;15.58;100.00;95064.88;10528225;28;20040;-75
2021/09/16 05:57:08;;;;;;;17.97;10.40;;;;;;;15.96;100.00;95069.41;10560480;28;20096;-75
2021/09/16 06:02:08;;;;;;;16.70;11.13;;;;;;;15.94;100.00;95067.00;10551338;28;20289;-85
2021/09/16 06:07:09;;;;;;;19.83;11.33;;;;;;;16.46;100.00;95077.66;10571456;28;20776;-77
2021/09/16 06:12:09;;;;;;;25.83;12.85;;;;;;;16.88;100.00;95077.63;10606307;27;20296;-79
2021/09/16 06:17:10;;;;;;;24.15;12.80;;;;;;;17.26;100.00;95082.78;10569470;27;20076;-74
2021/09/16 06:27:20;;;;;;;20.25;11.63;;;;;;;17.93;100.00;95076.56;10445736;28;20043;-87
2021/09/16 06:32:21;;;;;;;24.02;12.30;;;;;;;18.18;100.00;95073.50;10451713;28;20467;-89
2021/09/16 06:37:21;;;;;;;21.42;10.95;;;;;;;18.38;100.00;95080.31;10461811;28;20025;-88
2021/09/16 06:42:29;;;;;;;19.90;11.25;;;;;;;18.83;100.00;95073.88;10457870;28;20083;-92
2021/09/16 06:47:33;;;;;;;21.88;10.38;;;;;;;19.10;99.55;95070.91;10464556;28;20119;-90
2021/09/16 06:52:40;;;;;;;21.13;11.70;;;;;;;19.37;95.31;95062.72;10458368;28;20411;-89
2021/09/16 06:57:41;;;;;;;23.65;10.23;;;;;;;20.37;87.91;95066.22;10473358;28;20033;-90
2021/09/16 07:02:41;;;;;;;108.90;23.92;;;;;;;21.98;73.75;95059.81;10499721;28;20036;-91
2021/09/16 07:07:42;;;;;;;17.33;9.93;;;;;;;23.64;61.62;95058.72;10476016;28;20147;-90
2021/09/16 07:12:49;;;;;;;74.28;18.98;;;;;;;26.09;50.79;95051.56;10446665;28;20025;-90
2021/09/16 07:18:54;;;;;;;14.32;9.10;;;;;;;28.46;42.15;95046.94;10416972;28;20564;-91
2021/09/16 07:24:16;;;;;;;16.27;8.43;;;;;;;29.36;38.02;95042.09;10329014;28;20053;-91
2021/09/16 07:29:26;;;;;;;14.93;7.80;;;;;;;29.88;36.89;95041.16;10446082;28;20105;-91
2021/09/16 07:34:27;;;;;;;13.27;6.15;;;;;;;31.14;34.46;95035.75;10421854;28;20040;-91
2021/09/16 07:39:27;;;;;;;10.55;5.90;;;;;;;32.11;34.14;95037.41;10493741;28;20101;-91
2021/09/16 07:44:28;;;;;;;46.00;11.43;;;;;;;33.43;32.16;95031.22;10496790;28;20178;-90
2021/09/16 07:49:29;;;;;;;44.58;10.68;;;;;;;33.98;31.52;95027.41;10506766;28;20040;-91
2021/09/16 07:54:29;;;;;;;12.98;6.15;;;;;;;33.95;31.24;95022.66;10499753;28;20013;-91
2021/09/16 07:59:30;;;;;;;22.20;6.85;;;;;;;35.21;29.35;95026.31;10497714;28;20452;-90
2021/09/16 08:04:30;;;;;;;12.25;5.60;;;;;;;35.66;29.14;95039.06;10497323;28;20025;-90
2021/09/16 08:09:31;;;;;;;15.43;6.80;;;;;;;36.11;27.08;95029.38;10497319;28;20112;-91
2021/09/16 08:14:31;;;;;;;17.52;6.80;;;;;;;35.40;29.41;95032.38;10497636;28;20054;-91
2021/09/16 08:19:38;;;;;;;18.33;7.38;;;;;;;35.40;29.37;95022.00;10452930;28;20121;-91
2021/09/16 08:24:42;;;;;;;16.80;7.22;;;;;;;32.82;31.44;95018.66;10475405;28;20044;-94
2021/09/16 08:29:43;;;;;;;11.40;7.30;;;;;;;31.03;33.25;95027.44;10487172;28;20032;-95
2021/09/16 08:34:44;;;;;;;13.18;6.80;;;;;;;29.82;35.44;95015.75;10463561;28;20021;-91
2021/09/16 08:39:47;;;;;;;17.13;8.18;;;;;;;29.81;35.02;95014.19;10466055;28;20028;-91
2021/09/16 08:44:48;;;;;;;14.38;7.03;;;;;;;31.37;34.02;95010.31;10465334;28;20036;-90
2021/09/16 08:49:49;;;;;;;14.02;7.72;;;;;;;30.73;33.52;95005.63;10433756;28;20463;-92
2021/09/16 08:54:55;;;;;;;15.30;7.05;;;;;;;29.13;37.04;94996.06;10416754;28;20063;-93
2021/09/16 08:59:55;;;;;;;14.80;6.95;;;;;;;29.11;38.27;94990.13;10414086;28;20494;-90
2021/09/16 09:04:56;;;;;;;23.63;7.18;;;;;;;30.27;35.92;94988.56;10433591;28;20040;-90
2021/09/16 09:09:56;;;;;;;34.53;7.50;;;;;;;32.91;32.57;94982.00;10454670;28;20017;-91
2021/09/16 09:14:57;;;;;;;20.33;6.63;;;;;;;32.72;32.05;94984.16;10438257;28;20917;-91
2021/09/16 09:20:06;;;;;;;12.93;7.28;;;;;;;31.65;34.01;94983.66;10452794;28;20036;-88
2021/09/16 09:25:10;;;;;;;16.67;7.30;;;;;;;31.21;34.98;94979.41;10451763;28;20044;-87
2021/09/16 09:30:22;;;;;;;18.65;7.00;;;;;;;31.02;35.40;94975.88;10452742;28;20104;-87
2021/09/16 09:35:25;;;;;;;23.52;7.00;;;;;;;32.37;32.13;94972.09;10453493;28;20024;-87
2021/09/16 09:40:37;;;;;;;12.23;5.60;;;;;;;33.82;30.18;94969.44;10447445;28;20060;-88
2021/09/16 09:45:57;;;;;;;21.67;5.32;;;;;;;35.59;28.38;94967.31;10474973;28;20024;-87
2021/09/16 09:50:58;;;;;;;12.32;4.93;;;;;;;37.86;25.11;94957.34;10459430;28;20385;-89
2021/09/16 09:55:58;;;;;;;14.05;5.05;;;;;;;38.62;25.07;94952.97;10460903;28;20025;-88
2021/09/16 10:01:28;;;;;;;12.00;5.37;;;;;;;39.65;22.91;94949.84;10469497;28;20498;-87
2021/09/16 10:06:33;;;;;;;16.98;5.15;;;;;;;40.78;21.62;94941.41;10473894;28;20773;-85
2021/09/16 10:11:45;;;;;;;18.95;5.03;;;;;;;41.08;22.20;94939.72;10455245;28;20028;-84
2021/09/16 10:16:47;;;;;;;17.52;4.78;;;;;;;41.34;21.78;94928.91;10456921;28;20025;-88
2021/09/16 10:21:47;;;;;;;18.70;5.03;;;;;;;41.23;21.95;94928.59;10457272;28;20053;-89
2021/09/16 10:26:51;;;;;;;20.13;4.75;;;;;;;41.50;21.68;94919.38;10476783;28;20763;-88
2021/09/16 10:31:51;;;;;;;13.23;4.22;;;;;;;41.96;21.02;94920.53;10480182;28;20055;-88
2021/09/16 10:37:11;;;;;;;13.57;4.07;;;;;;;41.87;21.54;94901.59;10515066;28;20400;-85
2021/09/16 10:42:12;;;;;;;24.55;5.70;;;;;;;43.12;20.58;94895.88;10478514;28;20587;-89
2021/09/16 10:47:19;;;;;;;17.38;4.82;;;;;;;42.49;20.72;94888.13;10463285;28;20028;-89
2021/09/16 10:52:23;;;;;;;11.65;4.68;;;;;;;42.77;20.22;94879.47;10456978;28;20029;-89
2021/09/16 10:57:30;;;;;;;14.57;5.03;;;;;;;42.56;20.06;94884.94;10454702;28;20573;-87
2021/09/16 11:02:31;;;;;;;14.52;4.40;;;;;;;43.93;18.78;94871.34;10471273;28;20120;-88
2021/09/16 11:07:40;;;;;;;22.07;4.47;;;;;;;43.88;18.42;94858.69;10472004;28;20111;-84
2021/09/16 11:13:02;;;;;;;10.65;3.97;;;;;;;43.76;18.32;94848.41;10470628;28;20068;-86
2021/09/16 11:18:14;;;;;;;8.13;3.55;;;;;;;43.26;18.49;94841.38;10455720;28;20531;-84
2021/09/16 11:23:17;;;;;;;13.82;4.18;;;;;;;39.58;21.35;94846.00;10458938;28;20052;-84
2021/09/16 11:28:18;;;;;;;14.02;4.65;;;;;;;35.47;24.74;94838.59;10457064;28;20017;-83
2021/09/16 11:33:20;;;;;;;12.45;3.67;;;;;;;34.34;24.67;94840.00;10455117;28;20861;-82
2021/09/16 11:38:20;;;;;;;6.65;4.15;;;;;;;32.83;25.64;94828.19;10453945;28;20104;-84
2021/09/16 11:43:21;;;;;;;9.02;3.65;;;;;;;32.57;26.07;94815.72;10469225;28;20122;-83
2021/09/16 11:48:24;;;;;;;13.15;4.22;;;;;;;32.09;26.04;94814.59;10469878;28;20131;-84
2021/09/16 11:53:28;;;;;;;5.72;2.53;;;;;;;31.30;25.71;94811.19;10451709;28;20028;-84
2021/09/16 11:58:32;;;;;;;7.90;2.97;;;;;;;30.72;26.27;94816.19;10453232;28;20475;-83
2021/09/16 12:03:36;;;;;;;12.32;3.22;;;;;;;30.45;26.45;94802.81;10451568;28;20021;-84
2021/09/16 12:08:39;;;;;;;6.15;3.65;;;;;;;30.56;26.54;94788.09;10465918;28;20028;-83
2021/09/16 12:13:43;;;;;;;10.52;3.80;;;;;;;30.52;26.02;94785.34;10468117;28;20499;-85
2021/09/16 12:18:49;;;;;;;5.05;3.42;;;;;;;30.63;25.46;94775.00;10453025;28;20064;-83
2021/09/16 12:23:53;;;;;;;7.60;3.53;;;;;;;30.42;27.04;94777.81;10452785;28;20098;-84
2021/09/16 12:29:00;;;;;;;6.38;3.90;;;;;;;30.49;26.71;94763.94;10452562;28;20017;-83
2021/09/16 12:34:04;;;;;;;10.63;4.53;;;;;;;30.58;27.61;94766.31;10453689;28;20063;-85
2021/09/16 12:39:13;;;;;;;6.35;4.22;;;;;;;30.72;28.10;94762.69;10453430;28;20028;-84
2021/09/16 12:44:17;;;;;;;14.13;4.30;;;;;;;30.59;26.72;94756.78;10452611;28;20025;-84
2021/09/16 12:49:27;;;;;;;9.07;3.40;;;;;;;30.10;26.69;94760.09;10450120;28;20402;-84
2021/09/16 12:54:28;;;;;;;6.82;3.97;;;;;;;30.00;27.93;94756.16;10451205;28;20109;-83
2021/09/16 12:59:29;;;;;;;5.10;3.85;;;;;;;29.92;28.20;94756.53;10449657;28;20021;-85
2021/09/16 13:04:46;;;;;;;10.52;3.80;;;;;;;29.69;28.84;94748.63;10447684;28;20021;-85
2021/09/16 13:09:47;;;;;;;11.30;3.75;;;;;;;29.59;30.07;94744.69;10451053;28;20076;-84
2021/09/16 13:14:47;;;;;;;4.65;3.63;;;;;;;29.08;28.84;94747.38;10449302;28;20067;-85
2021/09/16 13:19:53;;;;;;;9.57;4.53;;;;;;;29.09;29.42;94737.88;10448270;28;20111;-84
2021/09/16 13:24:54;;;;;;;8.13;4.38;;;;;;;29.18;29.01;94736.72;10449595;28;20427;-84
2021/09/16 13:29:54;;;;;;;7.18;4.35;;;;;;;29.17;29.42;94741.47;10465255;28;20025;-85
2021/09/16 13:34:56;;;;;;;7.45;4.88;;;;;;;29.19;30.42;94736.31;10449104;28;20087;-85
2021/09/16 13:39:57;;;;;;;8.75;4.47;;;;;;;29.25;28.85;94722.91;10465662;28;20029;-85
2021/09/16 13:44:57;;;;;;;10.77;4.15;;;;;;;29.29;29.33;94718.16;10465280;28;20028;-84
2021/09/16 13:49:59;;;;;;;17.63;10.43;;;;;;;29.12;31.19;94714.97;10465089;28;20396;-86
2021/09/16 13:54:59;;;;;;;19.23;11.43;;;;;;;29.06;31.37;94724.06;10448414;28;20286;-85
2021/09/16 14:00:00;;;;;;;8.05;5.30;;;;;;;28.88;29.74;94724.03;10452255;28;20027;-85
2021/09/16 14:05:00;;;;;;;15.47;8.77;;;;;;;28.86;31.53;94723.59;10468308;28;20020;-84
2021/09/16 14:10:02;;;;;;;11.77;5.55;;;;;;;28.68;30.82;94718.06;10451411;28;20757;-85
2021/09/16 14:15:03;;;;;;;9.35;4.53;;;;;;;28.50;30.17;94715.97;10467111;28;20028;-85
2021/09/16 14:20:05;;;;;;;13.57;4.43;;;;;;;28.40;29.84;94719.50;10466737;28;20501;-85
2021/09/16 14:25:06;;;;;;;9.77;4.40;;;;;;;28.27;29.65;94721.81;10469919;28;20037;-84
2021/09/16 14:30:07;;;;;;;6.40;4.53;;;;;;;28.26;30.45;94721.03;10468032;28;20064;-85
2021/09/16 14:35:09;;;;;;;8.02;4.95;;;;;;;28.27;31.34;94725.38;10461619;28;20442;-85
2021/09/16 14:40:10;;;;;;;6.95;5.32;;;;;;;28.25;32.73;94724.19;10459812;28;20495;-85
2021/09/16 14:45:11;;;;;;;7.57;4.85;;;;;;;28.25;32.91;94732.47;10459567;28;20033;-83
2021/09/16 14:50:11;;;;;;;10.25;5.03;;;;;;;27.99;32.98;94716.91;10457114;28;20491;-85
2021/09/16 14:55:12;;;;;;;10.35;5.68;;;;;;;28.01;32.92;94720.13;10458668;28;20025;-84
2021/09/16 15:00:12;;;;;;;9.73;4.95;;;;;;;27.81;36.07;94717.56;10457883;28;20052;-84
2021/09/16 15:05:13;;;;;;;14.23;4.80;;;;;;;27.55;35.23;94726.88;10455554;28;20491;-84
2021/09/16 15:10:15;;;;;;;8.98;4.70;;;;;;;27.35;33.40;94731.81;10481976;28;20082;-84
2021/09/16 15:15:16;;;;;;;8.35;5.13;;;;;;;27.31;33.50;94720.75;10460018;28;20019;-84
2021/09/16 15:20:17;;;;;;;11.48;5.55;;;;;;;27.22;34.21;94720.28;10477951;28;20045;-83
2021/09/16 15:25:18;;;;;;;11.40;5.28;;;;;;;27.23;34.44;94725.41;10454731;28;20120;-84
2021/09/16 15:30:18;;;;;;;12.40;4.82;;;;;;;27.12;34.75;94719.78;10454888;28;20108;-84
2021/09/16 15:35:19;;;;;;;8.60;5.40;;;;;;;27.05;35.11;94728.00;10470112;28;20535;-84
2021/09/16 15:40:19;;;;;;;8.73;4.93;;;;;;;26.94;34.38;94727.88;10458883;28;20279;-86
2021/09/16 15:45:20;;;;;;;11.55;5.18;;;;;;;26.93;35.29;94728.28;10455435;28;20087;-83
2021/09/16 15:50:21;;;;;;;13.05;6.18;;;;;;;26.91;35.57;94728.66;10454644;28;20036;-84
2021/09/16 15:55:21;;;;;;;12.40;7.03;;;;;;;26.80;39.60;94740.75;10452568;28;20028;-84
2021/09/16 16:00:22;;;;;;;11.27;6.00;;;;;;;26.41;39.34;94734.38;10468803;28;20029;-84
2021/09/16 16:05:22;;;;;;;10.60;6.20;;;;;;;26.07;40.20;94734.34;10451661;28;20518;-84
2021/09/16 16:10:23;;;;;;;11.48;5.75;;;;;;;25.99;39.59;94735.38;10468575;28;20438;-84
2021/09/16 16:15:24;;;;;;;19.73;7.18;;;;;;;25.95;41.03;94742.03;10451722;28;20604;-83
2021/09/16 16:20:25;;;;;;;16.73;6.97;;;;;;;25.69;42.84;94758.19;10469953;28;20106;-84
2021/09/16 16:25:25;;;;;;;14.18;6.28;;;;;;;25.38;43.22;94760.06;10468665;28;20431;-85
2021/09/16 16:30:26;;;;;;;11.65;6.82;;;;;;;25.24;44.24;94773.53;10452278;28;20475;-90
2021/09/16 16:35:27;;;;;;;13.07;7.45;;;;;;;24.96;44.76;94779.31;10458742;28;20071;-90
2021/09/16 16:40:27;;;;;;;13.45;7.63;;;;;;;24.81;45.75;94783.75;10455311;28;20028;-92
2021/09/16 16:45:28;;;;;;;13.65;7.57;;;;;;;24.70;46.29;94789.06;10456319;28;20407;-89
2021/09/16 16:50:28;;;;;;;14.35;7.32;;;;;;;24.57;46.55;94796.59;10464375;28;20024;-90
2021/09/16 16:55:29;;;;;;;24.17;8.00;;;;;;;24.54;46.83;94806.34;10465505;28;20396;-90
2021/09/16 17:00:29;;;;;;;15.70;7.75;;;;;;;24.59;46.10;94805.28;10493377;28;20005;-91
2021/09/16 17:05:30;;;;;;;10.63;6.53;;;;;;;24.60;45.71;94814.31;10523524;28;20032;-90
2021/09/16 17:10:32;;;;;;;15.23;7.15;;;;;;;24.48;46.01;94812.53;10494352;28;20056;-91
2021/09/16 17:15:33;;;;;;;13.68;6.97;;;;;;;24.39;45.40;94824.50;10487484;28;20033;-91
2021/09/16 17:20:34;;;;;;;14.40;6.72;;;;;;;24.31;45.18;94833.75;10427517;28;20036;-89
2021/09/16 17:25:35;;;;;;;8.50;6.07;;;;;;;24.30;44.67;94837.66;10430476;28;20099;-90
2021/09/16 17:30:39;;;;;;;11.95;7.60;;;;;;;24.33;44.81;94842.41;10413944;28;20029;-93
2021/09/16 17:47:39;;;;;;;10.77;6.72;;;;;;;24.04;44.96;94846.47;10501833;28;20817;-90
2021/09/16 17:52:40;;;;;;;10.30;5.75;;;;;;;24.08;45.47;94858.34;10477004;28;20028;-90
2021/09/16 17:57:40;;;;;;;8.73;5.00;;;;;;;24.13;45.14;94846.28;10476627;28;20040;-90
2021/09/16 18:02:43;;;;;;;13.93;5.68;;;;;;;24.21;45.11;94853.50;10480314;28;20033;-90
2021/09/16 18:07:47;;;;;;;10.93;6.53;;;;;;;24.17;45.22;94853.44;10485187;28;20052;-91
2021/09/16 18:12:49;;;;;;;9.73;6.28;;;;;;;24.19;45.25;94859.38;10485787;28;20094;-90
2021/09/16 18:17:50;;;;;;;10.18;6.20;;;;;;;24.03;45.61;94856.66;10485714;28;20032;-89
2021/09/16 18:22:51;;;;;;;8.68;6.32;;;;;;;23.96;46.16;94867.47;10484073;28;20128;-91
2021/09/16 18:27:55;;;;;;;8.82;5.97;;;;;;;23.97;45.69;94858.06;10487268;28;20032;-93
2021/09/16 18:32:56;;;;;;;8.95;5.75;;;;;;;23.91;45.88;94859.50;10491987;28;20475;-93
2021/09/16 18:37:56;;;;;;;9.10;6.22;;;;;;;23.85;46.66;94863.66;10487414;28;20043;-90
2021/09/16 18:42:58;;;;;;;10.38;5.57;;;;;;;23.81;45.56;94854.53;10498116;28;20044;-88
2021/09/16 18:47:59;;;;;;;12.10;6.18;;;;;;;23.69;45.69;94852.66;10489739;28;20059;-89
2021/09/16 18:53:07;;;;;;;10.93;5.95;;;;;;;23.64;45.95;94853.75;10487269;28;20025;-90
2021/09/16 18:58:07;;;;;;;;;;;;;;;23.64;46.27;94855.66;10486906;28;20123;-91
2021/09/16 19:03:08;;;;;;;7.97;5.43;;;;;;;23.63;46.33;94854.09;10488162;28;20397;-91
2021/09/16 19:08:09;;;;;;;9.20;5.93;;;;;;;23.49;46.55;94855.31;10494036;28;20414;-90
2021/09/16 19:13:09;;;;;;;11.95;6.13;;;;;;;23.47;46.70;94856.81;10506208;28;20514;-91
2021/09/16 19:18:12;;;;;;;11.60;6.05;;;;;;;23.36;47.93;94848.34;10483575;28;20115;-91
2021/09/16 19:23:13;;;;;;;12.02;6.00;;;;;;;23.32;47.93;94848.22;10483894;28;20024;-91
2021/09/16 19:28:14;;;;;;;13.43;5.35;;;;;;;23.18;46.68;94856.09;10485380;28;20116;-92
2021/09/16 19:33:14;;;;;;;9.80;5.70;;;;;;;23.11;47.18;94853.94;10481435;28;20086;-89
2021/09/16 19:38:15;;;;;;;10.00;6.00;;;;;;;23.00;48.30;94856.38;10497792;28;20029;-90
2021/09/16 19:43:15;;;;;;;10.07;6.60;;;;;;;22.99;47.85;94848.50;10479231;28;20526;-89
2021/09/16 19:48:16;;;;;;;8.30;5.65;;;;;;;22.80;49.92;94843.66;10479763;28;20020;-89
2021/09/16 19:53:17;;;;;;;14.43;6.28;;;;;;;22.83;48.52;94852.00;10499598;28;20419;-85
2021/09/16 19:58:17;;;;;;;11.52;5.63;;;;;;;22.93;48.16;94847.97;10479003;28;20020;-86
2021/09/16 20:03:18;;;;;;;11.60;5.53;;;;;;;23.04;50.16;94843.56;10477495;28;20529;-85
2021/09/16 20:08:18;;;;;;;16.33;6.28;;;;;;;23.00;51.03;94837.19;10477391;28;20362;-87
2021/09/16 20:13:19;;;;;;;12.25;7.20;;;;;;;22.96;49.14;94836.28;10477059;28;20029;-85
2021/09/16 20:18:19;;;;;;;11.52;7.13;;;;;;;22.97;52.18;94840.63;10476390;28;20131;-87
2021/09/16 20:23:20;;;;;;;15.25;5.97;;;;;;;22.87;52.26;94835.63;10476000;28;20449;-85
2021/09/16 20:28:20;;;;;;;10.20;6.00;;;;;;;22.85;54.99;94844.22;10475872;28;20028;-85
2021/09/16 20:33:21;;;;;;;16.20;6.63;;;;;;;22.77;56.30;94838.88;10477785;28;20849;-86
2021/09/16 20:38:21;;;;;;;11.43;6.80;;;;;;;22.67;53.15;94831.97;10476729;28;20056;-86
2021/09/16 20:43:25;;;;;;;10.50;7.20;;;;;;;22.73;54.42;94821.56;10476392;28;20583;-86
2021/09/16 20:48:25;;;;;;;11.50;6.93;;;;;;;22.81;54.77;94826.88;10493555;28;20020;-85
2021/09/16 20:53:29;;;;;;;9.93;6.85;;;;;;;22.73;57.08;94822.38;10494203;28;20027;-87
2021/09/16 20:58:29;;;;;;;13.75;6.40;;;;;;;22.67;56.86;94821.00;10494308;28;20107;-86
2021/09/16 21:03:30;;;;;;;11.23;5.80;;;;;;;22.59;58.74;94825.50;10477594;28;20148;-86
2021/09/16 21:08:30;;;;;;;9.52;6.00;;;;;;;22.51;61.48;94819.00;10476323;28;20403;-85
2021/09/16 21:13:32;;;;;;;9.02;5.47;;;;;;;22.41;61.02;94832.38;10475900;28;20472;-87
2021/09/16 21:18:33;;;;;;;10.50;5.65;;;;;;;22.19;63.78;94826.25;10477586;28;20055;-86
2021/09/16 21:23:33;;;;;;;12.13;5.90;;;;;;;21.83;67.19;94836.88;10477057;28;20470;-87
2021/09/16 21:28:34;;;;;;;6.97;5.32;;;;;;;21.66;69.40;94837.91;10475578;28;20263;-88
2021/09/16 21:33:34;;;;;;;8.27;5.93;;;;;;;21.46;72.26;94834.13;10494045;28;20031;-88
2021/09/16 21:38:35;;;;;;;12.80;5.57;;;;;;;21.42;71.93;94829.66;10493725;28;20020;-87
2021/09/16 21:43:38;;;;;;;12.10;5.60;;;;;;;21.46;71.97;94828.66;10482299;28;20511;-86
2021/09/16 21:48:39;;;;;;;13.82;6.00;;;;;;;21.44;72.08;94830.91;10484525;28;20025;-87
2021/09/16 21:53:40;;;;;;;6.57;5.38;;;;;;;21.41;73.23;94833.56;10484438;28;20043;-88
2021/09/16 21:58:40;;;;;;;11.50;5.65;;;;;;;21.43;73.19;94826.59;10501195;28;20048;-86
2021/09/16 22:03:41;;;;;;;12.00;6.00;;;;;;;21.44;74.02;94828.19;10483781;28;20063;-87
2021/09/16 22:08:41;;;;;;;10.63;5.30;;;;;;;21.50;71.93;94815.91;10501931;28;20025;-87
2021/09/16 22:13:42;;;;;;;13.68;7.03;;;;;;;21.63;71.40;94816.72;10484204;28;20103;-87
2021/09/16 22:18:43;;;;;;;10.93;5.63;;;;;;;21.70;70.78;94823.56;10500997;28;20031;-87
2021/09/16 22:23:44;;;;;;;12.40;6.15;;;;;;;21.67;70.96;94825.84;10483734;28;20123;-86
2021/09/16 22:28:44;;;;;;;11.93;6.03;;;;;;;21.68;70.68;94826.63;10483013;28;20479;-87
2021/09/16 22:33:45;;;;;;;9.27;5.18;;;;;;;21.54;73.57;94829.69;10483484;28;20051;-86
2021/09/16 22:38:45;;;;;;;12.68;5.50;;;;;;;21.20;77.06;94812.56;10483155;28;20503;-86
2021/09/16 22:43:46;;;;;;;10.32;5.75;;;;;;;21.12;79.07;94816.19;10486412;28;20056;-87
2021/09/16 22:48:46;;;;;;;10.00;5.80;;;;;;;21.12;79.84;94810.72;10487258;28;20013;-86
2021/09/16 22:53:47;;;;;;;14.20;6.43;;;;;;;20.84;84.18;94822.25;10492715;28;20317;-86
2021/09/16 22:58:49;;;;;;;11.93;6.70;;;;;;;20.57;86.36;94832.59;10495799;28;20025;-87
2021/09/16 23:03:49;;;;;;;12.02;6.50;;;;;;;20.57;86.70;94823.59;10483532;28;20086;-87
2021/09/16 23:08:50;;;;;;;10.38;6.68;;;;;;;20.65;85.82;94834.47;10481890;28;20025;-87
2021/09/16 23:13:50;;;;;;;8.33;6.27;;;;;;;20.73;83.97;94834.75;10480295;28;20031;-87
2021/09/16 23:18:51;;;;;;;8.07;5.80;;;;;;;20.88;81.64;94831.38;10477482;28;20283;-87
2021/09/16 23:23:53;;;;;;;12.95;5.93;;;;;;;20.98;83.03;94828.22;10499275;28;20031;-88